Time;durP1;ratioP1;P1;durP2;ratioP2;P2;SDS_P1;SDS_P2;PMS_P1;PMS_P2;Temp;Humidity;BMP_temperature;BMP_pressure;BME280_temperature;BME280_humidity;BME280_pressure;Samples;Min_cycle;Max_cycle;Signal;HPM_P1;HPM_P2
2023/04/13 00:01:55;;;;;;;;;;;20.90;50.10;;;;;;4745917;58;20064;-28
2023/04/13 00:07:02;;;;;;;;;;;20.90;50.10;;;;;;4758256;55;20064;-26
2023/04/13 00:12:03;;;;;;;;;;;20.90;50.10;;;;;;4746696;55;20079;-26
2023/04/13 00:17:04;;;;;;;;;;;20.90;50.10;;;;;;4823911;55;20302;-33
2023/04/13 00:22:06;;;;;;;;;;;20.90;50.10;;;;;;4767666;55;20073;-29
2023/04/13 00:27:09;;;;;;;;;;;20.90;50.70;;;;;;4763959;55;20335;-27
2023/04/13 00:32:10;;;;;;;;;;;20.90;50.10;;;;;;4746949;58;20080;-27
2023/04/13 00:37:12;;;;;;;;;;;20.90;50.10;;;;;;4796982;55;20299;-28
2023/04/13 00:42:12;;;;;;;;;;;20.90;50.10;;;;;;4751898;55;20366;-28
2023/04/13 00:47:16;;;;;;;;;;;20.90;50.10;;;;;;4791449;55;20124;-29
2023/04/13 00:52:17;;;;;;;;;;;20.90;50.10;;;;;;4870737;55;20306;-28
2023/04/13 00:57:18;;;;;;;;;;;20.90;50.10;;;;;;4784639;55;20065;-27
2023/04/13 01:02:23;;;;;;;;;;;20.90;50.10;;;;;;4809281;55;20069;-26
2023/04/13 01:07:36;;;;;;;;;;;20.90;50.10;;;;;;4801597;55;20328;-27
2023/04/13 01:12:59;;;;;;;;;;;20.90;50.00;;;;;;4746858;58;20335;-27
2023/04/13 01:18:06;;;;;;;;;;;20.90;50.20;;;;;;4932406;55;20120;-26
2023/04/13 01:23:08;;;;;;;;;;;20.90;50.10;;;;;;4785392;55;20303;-28
2023/04/13 01:28:14;;;;;;;;;;;20.90;50.10;;;;;;4801602;55;20131;-27
2023/04/13 01:33:17;;;;;;;;;;;20.90;50.80;;;;;;4761569;55;20301;-29
2023/04/13 01:38:23;;;;;;;;;;;20.90;50.10;;;;;;4746624;58;20561;-28
2023/04/13 01:43:24;;;;;;;;;;;20.90;50.00;;;;;;4857729;55;20956;-25
2023/04/13 01:48:42;;;;;;;;;;;20.90;50.00;;;;;;4780550;55;20339;-28
2023/04/13 01:53:43;;;;;;;;;;;20.90;50.00;;;;;;4805114;55;20354;-28
2023/04/13 01:58:50;;;;;;;;;;;20.90;50.00;;;;;;4832998;55;20168;-28
2023/04/13 02:03:51;;;;;;;;;;;20.90;50.00;;;;;;4767351;55;20072;-29
2023/04/13 02:08:52;;;;;;;;;;;20.90;50.00;;;;;;4797182;55;20073;-27
2023/04/13 02:13:56;;;;;;;;;;;20.90;50.00;;;;;;4799488;55;20068;-28
2023/04/13 02:19:00;;;;;;;;;;;20.90;50.10;;;;;;4810842;55;20298;-29
2023/04/13 02:24:01;;;;;;;;;;;20.90;50.00;;;;;;4745813;58;20172;-28
2023/04/13 02:29:02;;;;;;;;;;;20.90;50.10;;;;;;4916361;55;20303;-27
2023/04/13 02:34:03;;;;;;;;;;;20.80;50.00;;;;;;4831304;55;20144;-28
2023/04/13 02:39:04;;;;;;;;;;;20.90;50.10;;;;;;4746488;58;20436;-27
2023/04/13 02:44:05;;;;;;;;;;;20.90;50.10;;;;;;4799720;55;20072;-28
2023/04/13 02:49:05;;;;;;;;;;;20.90;50.10;;;;;;4831717;55;20088;-27
2023/04/13 02:54:08;;;;;;;;;;;20.90;50.10;;;;;;4798804;55;20673;-28
2023/04/13 02:59:09;;;;;;;;;;;20.90;50.00;;;;;;4746718;55;20084;-28
2023/04/13 03:04:10;;;;;;;;;;;20.90;50.00;;;;;;4813116;55;20076;-29
2023/04/13 03:09:11;;;;;;;;;;;20.90;50.00;;;;;;4746634;58;20263;-29
2023/04/13 03:14:12;;;;;;;;;;;20.80;50.00;;;;;;4822086;55;20266;-27
2023/04/13 03:19:13;;;;;;;;;;;20.90;50.10;;;;;;4804991;55;20308;-28
2023/04/13 03:24:13;;;;;;;;;;;20.80;50.00;;;;;;4771259;55;20856;-29
2023/04/13 03:29:14;;;;;;;;;;;20.80;50.00;;;;;;4815985;55;20104;-29
2023/04/13 03:34:15;;;;;;;;;;;20.80;50.10;;;;;;4769095;55;20119;-27
2023/04/13 03:39:15;;;;;;;;;;;20.80;50.00;;;;;;4854404;55;20128;-28
2023/04/13 03:44:16;;;;;;;;;;;20.90;50.00;;;;;;4843195;55;20093;-27
2023/04/13 03:49:17;;;;;;;;;;;20.80;50.10;;;;;;4804775;55;20294;-28
2023/04/13 03:54:17;;;;;;;;;;;20.80;50.10;;;;;;4815837;55;20064;-29
2023/04/13 03:59:18;;;;;;;;;;;20.80;50.20;;;;;;4859906;55;20172;-28
2023/04/13 04:04:20;;;;;;;;;;;20.80;50.10;;;;;;4745465;56;20299;-27
2023/04/13 04:09:20;;;;;;;;;;;20.80;50.10;;;;;;4746381;58;20354;-27
2023/04/13 04:14:21;;;;;;;;;;;20.80;50.10;;;;;;4770054;55;20120;-28
2023/04/13 04:19:25;;;;;;;;;;;20.80;50.20;;;;;;4746808;58;20116;-31
2023/04/13 04:24:26;;;;;;;;;;;20.80;50.30;;;;;;4842966;55;20064;-28
2023/04/13 04:29:35;;;;;;;;;;;20.80;50.20;;;;;;4745996;58;20048;-28
2023/04/13 04:34:37;;;;;;;;;;;20.80;50.20;;;;;;4746166;55;20123;-28
2023/04/13 04:39:43;;;;;;;;;;;20.80;50.20;;;;;;4746580;58;20362;-27
2023/04/13 04:44:46;;;;;;;;;;;20.80;50.20;;;;;;4747064;55;20116;-26
2023/04/13 04:49:46;;;;;;;;;;;20.80;50.20;;;;;;4869806;55;20309;-31
2023/04/13 04:54:47;;;;;;;;;;;20.80;50.20;;;;;;4794904;55;20060;-27
2023/04/13 04:59:50;;;;;;;;;;;20.80;50.90;;;;;;4792702;55;20473;-28
2023/04/13 05:04:52;;;;;;;;;;;20.80;50.00;;;;;;4779848;55;20160;-28
2023/04/13 05:09:53;;;;;;;;;;;20.80;50.00;;;;;;4821949;55;20279;-28
2023/04/13 05:14:53;;;;;;;;;;;20.80;50.00;;;;;;4843492;55;20116;-28
2023/04/13 05:19:54;;;;;;;;;;;20.80;50.60;;;;;;4746422;56;20065;-29
2023/04/13 05:24:54;;;;;;;;;;;20.80;50.10;;;;;;4773691;55;20171;-28
2023/04/13 05:29:56;;;;;;;;;;;20.80;50.00;;;;;;4825224;55;20128;-27
2023/04/13 05:34:56;;;;;;;;;;;20.80;50.00;;;;;;4840243;55;20299;-30
2023/04/13 05:39:57;;;;;;;;;;;20.80;50.00;;;;;;4746346;58;20068;-29
2023/04/13 05:44:58;;;;;;;;;;;20.80;50.00;;;;;;4879314;55;20314;-28
2023/04/13 05:49:58;;;;;;;;;;;20.80;50.00;;;;;;4759226;55;20324;-27
2023/04/13 05:55:00;;;;;;;;;;;20.80;50.00;;;;;;4746402;58;20068;-30
2023/04/13 06:00:00;;;;;;;;;;;20.80;50.10;;;;;;4762854;55;20306;-29
2023/04/13 06:05:03;;;;;;;;;;;20.80;50.00;;;;;;4798861;55;20418;-30
2023/04/13 06:10:04;;;;;;;;;;;20.80;50.00;;;;;;4774270;55;20319;-28
2023/04/13 06:15:05;;;;;;;;;;;20.80;50.00;;;;;;4839588;55;20092;-28
2023/04/13 06:20:09;;;;;;;;;;;20.80;50.00;;;;;;4781325;55;20067;-30
2023/04/13 06:25:11;;;;;;;;;;;20.80;50.00;;;;;;4770449;55;20354;-28
2023/04/13 06:30:12;;;;;;;;;;;20.80;50.00;;;;;;4783742;55;20314;-19
2023/04/13 06:35:12;;;;;;;;;;;20.80;50.00;;;;;;4749971;55;20112;-28
2023/04/13 06:40:14;;;;;;;;;;;20.80;50.00;;;;;;4744629;58;20228;-28
2023/04/13 06:45:15;;;;;;;;;;;20.80;50.00;;;;;;4754320;55;20367;-28
2023/04/13 06:50:15;;;;;;;;;;;20.80;50.00;;;;;;4750913;55;20100;-27
2023/04/13 06:55:16;;;;;;;;;;;20.80;49.80;;;;;;4766181;55;20136;-28
2023/04/13 07:00:17;;;;;;;;;;;20.90;49.70;;;;;;4769600;55;20339;-30
2023/04/13 07:05:18;;;;;;;;;;;20.90;49.60;;;;;;4745550;58;20140;-29
2023/04/13 07:10:19;;;;;;;;;;;20.90;49.60;;;;;;4784395;55;20145;-27
2023/04/13 07:15:20;;;;;;;;;;;20.90;49.60;;;;;;4757794;55;20136;-28
2023/04/13 07:20:21;;;;;;;;;;;20.90;49.60;;;;;;4758240;55;20354;-29
2023/04/13 07:25:22;;;;;;;;;;;20.90;49.60;;;;;;4765976;55;20060;-28
2023/04/13 07:30:23;;;;;;;;;;;20.90;49.50;;;;;;4796437;55;20067;-28
2023/04/13 07:35:24;;;;;;;;;;;21.00;49.50;;;;;;4760460;55;20113;-31
2023/04/13 07:40:25;;;;;;;;;;;21.00;49.50;;;;;;4758261;55;20069;-31
2023/04/13 07:45:28;;;;;;;;;;;21.00;49.50;;;;;;4771389;55;20067;-29
2023/04/13 07:50:29;;;;;;;;;;;21.00;49.50;;;;;;4746361;58;20069;-29
2023/04/13 07:55:29;;;;;;;;;;;21.00;49.40;;;;;;4829425;55;20362;-27
2023/04/13 08:00:30;;;;;;;;;;;21.00;49.40;;;;;;4762714;55;20065;-32
2023/04/13 08:05:31;;;;;;;;;;;21.00;49.40;;;;;;4779454;55;20383;-30
2023/04/13 08:10:31;;;;;;;;;;;21.00;49.30;;;;;;4782966;55;20489;-28
2023/04/13 08:15:32;;;;;;;;;;;21.00;49.40;;;;;;4746141;58;20053;-27
2023/04/13 08:20:34;;;;;;;;;;;21.00;49.30;;;;;;4867268;55;20362;-31
2023/04/13 08:25:38;;;;;;;;;;;21.00;49.40;;;;;;4767914;55;20076;-30
2023/04/13 08:30:39;;;;;;;;;;;21.00;49.30;;;;;;4763581;55;20322;-28
2023/04/13 08:35:40;;;;;;;;;;;21.00;49.30;;;;;;4760266;55;20335;-30
2023/04/13 08:40:41;;;;;;;;;;;21.00;49.30;;;;;;4814956;55;20109;-29
2023/04/13 08:45:41;;;;;;;;;;;21.00;49.40;;;;;;4771572;55;20120;-26
2023/04/13 08:50:42;;;;;;;;;;;21.00;49.20;;;;;;4750514;55;20367;-29
2023/04/13 08:55:46;;;;;;;;;;;21.10;50.00;;;;;;4757803;55;20069;-28
2023/04/13 09:00:48;;;;;;;;;;;21.10;50.30;;;;;;4763651;55;20065;-29
2023/04/13 09:06:03;;;;;;;;;;;21.10;50.50;;;;;;4745145;55;20344;-25
2023/04/13 09:11:04;;;;;;;;;;;21.10;50.70;;;;;;4744079;58;20477;-29
2023/04/13 09:16:06;;;;;;;;;;;21.20;50.90;;;;;;4744349;58;20139;-27
2023/04/13 09:21:07;;;;;;;;;;;21.20;51.00;;;;;;4763694;55;20351;-28
2023/04/13 09:26:08;;;;;;;;;;;21.20;51.20;;;;;;4764067;55;20072;-28
2023/04/13 09:31:12;;;;;;;;;;;21.20;51.20;;;;;;4750606;55;20338;-26
2023/04/13 09:36:14;;;;;;;;;;;21.20;51.40;;;;;;4743748;58;20591;-29
2023/04/13 09:41:15;;;;;;;;;;;21.30;51.60;;;;;;4759819;55;20948;-28
2023/04/13 09:46:15;;;;;;;;;;;21.30;51.70;;;;;;4751703;55;20398;-21
2023/04/13 09:51:16;;;;;;;;;;;21.30;51.70;;;;;;4760635;55;20333;-25
2023/04/13 09:56:18;;;;;;;;;;;21.30;51.80;;;;;;4744408;58;20802;-27
2023/04/13 10:01:20;;;;;;;;;;;21.30;51.90;;;;;;4743603;58;20415;-22
2023/04/13 10:06:21;;;;;;;;;;;21.30;52.00;;;;;;4791461;55;20116;-26
2023/04/13 10:11:22;;;;;;;;;;;21.30;52.10;;;;;;4812284;55;20310;-25
2023/04/13 10:17:53;;;;;;;;;;;21.30;52.20;;;;;;4749163;55;20409;-26
2023/04/13 10:22:54;;;;;;;;;;;21.40;52.30;;;;;;4772851;55;20075;-27
2023/04/13 10:27:56;;;;;;;;;;;21.40;52.00;;;;;;4762127;55;20331;-25
2023/04/13 10:33:04;;;;;;;;;;;21.40;51.90;;;;;;4744275;58;20448;-29
2023/04/13 10:38:07;;;;;;;;;;;21.40;51.80;;;;;;4744985;58;20274;-30
2023/04/13 10:43:08;;;;;;;;;;;21.40;51.80;;;;;;4745446;55;20314;-28
2023/04/13 10:48:18;;;;;;;;;;;21.30;51.70;;;;;;4745951;55;20116;-29
2023/04/13 10:53:23;;;;;;;;;;;21.40;51.70;;;;;;4771541;55;20321;-27
2023/04/13 10:58:25;;;;;;;;;;;21.30;51.30;;;;;;4833592;55;20148;-27
2023/04/13 11:03:27;;;;;;;;;;;21.30;51.20;;;;;;4774303;55;20159;-29
2023/04/13 11:08:28;;;;;;;;;;;21.30;51.30;;;;;;4747408;55;20315;-22
2023/04/13 11:13:29;;;;;;;;;;;21.30;51.40;;;;;;4783725;55;20112;-29
2023/04/13 11:18:30;;;;;;;;;;;21.20;51.30;;;;;;4749719;55;20349;-30
2023/04/13 11:23:33;;;;;;;;;;;21.20;51.40;;;;;;4788345;55;20368;-27
2023/04/13 11:28:41;;;;;;;;;;;21.20;51.50;;;;;;4746452;58;20266;-31
2023/04/13 11:33:47;;;;;;;;;;;21.20;51.50;;;;;;4746335;58;20394;-28
2023/04/13 11:38:48;;;;;;;;;;;21.20;51.50;;;;;;4836991;55;20311;-30
2023/04/13 11:43:52;;;;;;;;;;;21.20;51.50;;;;;;4746736;55;20368;-29
2023/04/13 11:48:53;;;;;;;;;;;21.20;51.50;;;;;;4746463;58;20306;-28
2023/04/13 11:53:54;;;;;;;;;;;21.20;51.60;;;;;;4794702;55;20068;-29
2023/04/13 11:58:55;;;;;;;;;;;21.20;51.60;;;;;;4999013;55;20310;-29
2023/04/13 12:04:07;;;;;;;;;;;21.10;51.60;;;;;;4745682;58;20705;-29
2023/04/13 12:09:11;;;;;;;;;;;21.10;51.60;;;;;;4806659;55;20401;-27
2023/04/13 12:14:22;;;;;;;;;;;21.10;51.60;;;;;;4746648;55;20377;-30
2023/04/13 12:19:22;;;;;;;;;;;21.10;51.60;;;;;;4777950;55;20402;-29
2023/04/13 12:24:30;;;;;;;;;;;21.10;51.70;;;;;;4815607;55;20319;-30
2023/04/13 12:29:35;;;;;;;;;;;21.10;51.60;;;;;;4751654;55;20402;-29
2023/04/13 12:34:36;;;;;;;;;;;21.10;51.70;;;;;;4749480;55;20096;-29
2023/04/13 12:39:37;;;;;;;;;;;21.10;51.70;;;;;;4746804;55;20061;-28
2023/04/13 12:44:37;;;;;;;;;;;21.10;51.70;;;;;;4745293;58;20088;-29
2023/04/13 12:49:38;;;;;;;;;;;21.10;51.70;;;;;;4786575;55;20329;-28
2023/04/13 12:54:39;;;;;;;;;;;21.10;51.80;;;;;;4811062;55;20052;-29
2023/04/13 12:59:39;;;;;;;;;;;21.10;51.80;;;;;;4813350;55;20397;-28
2023/04/13 13:04:41;;;;;;;;;;;21.10;51.80;;;;;;4783193;55;20068;-28
2023/04/13 13:09:42;;;;;;;;;;;21.10;51.80;;;;;;4827555;55;20295;-30
2023/04/13 13:14:42;;;;;;;;;;;21.10;51.80;;;;;;4750214;55;20124;-24
2023/04/13 13:19:43;;;;;;;;;;;21.10;51.80;;;;;;4746205;58;20073;-26
2023/04/13 13:24:43;;;;;;;;;;;21.10;51.90;;;;;;4765234;55;20065;-28
2023/04/13 13:29:44;;;;;;;;;;;21.10;51.80;;;;;;4776523;55;20270;-28
2023/04/13 13:34:45;;;;;;;;;;;21.10;51.90;;;;;;4746240;56;20140;-28
2023/04/13 13:39:45;;;;;;;;;;;21.10;51.90;;;;;;4765617;55;20101;-29
2023/04/13 13:44:46;;;;;;;;;;;21.10;51.90;;;;;;4777165;55;20060;-29
2023/04/13 13:49:47;;;;;;;;;;;21.10;51.90;;;;;;4829118;55;20156;-30
2023/04/13 13:54:48;;;;;;;;;;;21.10;51.90;;;;;;4764003;55;20367;-27
2023/04/13 13:59:49;;;;;;;;;;;21.10;51.90;;;;;;4770023;55;20283;-30
2023/04/13 14:04:50;;;;;;;;;;;21.10;51.90;;;;;;4836992;55;20382;-29
2023/04/13 14:09:50;;;;;;;;;;;21.10;51.90;;;;;;4785334;55;20362;-28
2023/04/13 14:14:52;;;;;;;;;;;21.10;51.90;;;;;;4746475;58;20098;-30
2023/04/13 14:19:53;;;;;;;;;;;21.10;51.90;;;;;;4750998;55;20068;-27
2023/04/13 14:24:54;;;;;;;;;;;21.10;51.90;;;;;;4746783;58;20069;-29
2023/04/13 14:29:55;;;;;;;;;;;21.10;51.90;;;;;;4804146;55;20311;-25
2023/04/13 14:34:56;;;;;;;;;;;21.10;51.90;;;;;;4746123;58;20069;-30
2023/04/13 14:39:58;;;;;;;;;;;21.10;51.90;;;;;;4764116;55;20375;-28
2023/04/13 14:44:59;;;;;;;;;;;21.10;51.90;;;;;;4804948;55;20168;-28
2023/04/13 14:50:00;;;;;;;;;;;21.20;51.90;;;;;;4746024;58;20084;-27
2023/04/13 14:55:00;;;;;;;;;;;21.20;51.90;;;;;;4769996;55;20314;-29
2023/04/13 15:00:01;;;;;;;;;;;21.20;51.90;;;;;;4786530;55;20057;-28
2023/04/13 15:05:02;;;;;;;;;;;21.20;51.90;;;;;;4746350;58;20282;-31
2023/04/13 15:10:04;;;;;;;;;;;21.10;52.30;;;;;;4746680;58;20323;-29
2023/04/13 15:15:05;;;;;;;;;;;21.20;51.90;;;;;;4769164;55;20076;-31
2023/04/13 15:20:06;;;;;;;;;;;21.20;51.90;;;;;;4765451;55;20353;-31
2023/04/13 15:25:07;;;;;;;;;;;21.20;51.90;;;;;;4746405;58;20104;-28
2023/04/13 15:30:11;;;;;;;;;;;21.20;51.90;;;;;;4746513;58;20326;-27
2023/04/13 15:35:12;;;;;;;;;;;21.20;51.90;;;;;;4792489;55;20069;-28
2023/04/13 15:40:13;;;;;;;;;;;21.20;51.90;;;;;;4784492;55;20330;-29
2023/04/13 15:45:17;;;;;;;;;;;21.20;51.90;;;;;;4746096;58;20172;-29
2023/04/13 15:50:18;;;;;;;;;;;21.20;51.90;;;;;;4754511;55;20322;-29
2023/04/13 15:55:19;;;;;;;;;;;21.20;51.90;;;;;;4794465;55;20084;-31
2023/04/13 16:00:21;;;;;;;;;;;21.20;51.90;;;;;;4791817;55;20703;-29
2023/04/13 16:05:22;;;;;;;;;;;21.20;51.90;;;;;;4832081;55;20260;-26
2023/04/13 16:10:26;;;;;;;;;;;21.20;51.90;;;;;;4851456;55;20080;-27
2023/04/13 16:15:26;;;;;;;;;;;21.20;51.90;;;;;;4746121;58;20069;-26
2023/04/13 16:20:27;;;;;;;;;;;21.20;52.50;;;;;;4746144;58;20343;-30
2023/04/13 16:25:27;;;;;;;;;;;21.20;51.90;;;;;;4749705;55;20169;-30
2023/04/13 16:30:29;;;;;;;;;;;21.20;51.90;;;;;;4745971;58;20172;-29
2023/04/13 16:35:30;;;;;;;;;;;21.20;51.90;;;;;;4745949;58;20294;-29
2023/04/13 16:40:31;;;;;;;;;;;21.20;51.90;;;;;;4853092;55;20072;-27
2023/04/13 16:45:31;;;;;;;;;;;21.20;51.90;;;;;;4787364;55;20096;-29
2023/04/13 16:50:32;;;;;;;;;;;21.20;52.00;;;;;;4840248;55;20189;-26
2023/04/13 16:55:33;;;;;;;;;;;21.20;51.90;;;;;;4795661;55;20076;-28
2023/04/13 17:00:34;;;;;;;;;;;21.20;51.90;;;;;;4752012;55;20396;-29
2023/04/13 17:05:35;;;;;;;;;;;21.20;51.90;;;;;;4762797;55;20673;-29
2023/04/13 17:10:36;;;;;;;;;;;21.20;51.90;;;;;;4804536;55;20183;-28
2023/04/13 17:15:36;;;;;;;;;;;21.20;51.90;;;;;;4797428;55;20302;-29
2023/04/13 17:20:38;;;;;;;;;;;21.20;51.90;;;;;;4816648;55;20160;-30
2023/04/13 17:25:40;;;;;;;;;;;21.20;51.90;;;;;;4791875;55;20341;-30
2023/04/13 17:30:41;;;;;;;;;;;21.20;51.90;;;;;;4758662;55;20669;-30
2023/04/13 17:35:41;;;;;;;;;;;21.20;52.00;;;;;;4745533;58;20362;-28
2023/04/13 17:40:42;;;;;;;;;;;21.20;51.90;;;;;;4918768;55;20323;-28
2023/04/13 17:45:42;;;;;;;;;;;21.20;51.90;;;;;;4746434;58;20072;-29
2023/04/13 17:50:43;;;;;;;;;;;21.20;51.90;;;;;;4790070;55;20096;-29
2023/04/13 17:55:44;;;;;;;;;;;21.20;51.90;;;;;;4782270;55;20109;-28
2023/04/13 18:00:45;;;;;;;;;;;21.30;52.00;;;;;;4762060;55;20104;-29
2023/04/13 18:05:45;;;;;;;;;;;21.20;51.90;;;;;;4872283;55;20096;-28
2023/04/13 18:10:46;;;;;;;;;;;21.30;52.00;;;;;;4801261;55;20060;-27
2023/04/13 18:15:48;;;;;;;;;;;21.30;52.00;;;;;;4828043;55;20104;-29
2023/04/13 18:20:52;;;;;;;;;;;21.30;52.10;;;;;;4746291;58;20295;-29
2023/04/13 18:25:53;;;;;;;;;;;21.30;52.00;;;;;;4841581;55;20112;-27
2023/04/13 18:30:57;;;;;;;;;;;21.30;52.00;;;;;;4981011;55;20121;-36
2023/04/13 18:35:58;;;;;;;;;;;21.30;52.00;;;;;;4745805;58;20068;-29
2023/04/13 18:40:58;;;;;;;;;;;21.30;51.90;;;;;;4813055;55;20135;-28
2023/04/13 18:45:59;;;;;;;;;;;21.20;51.90;;;;;;4891509;55;20073;-28
2023/04/13 18:51:01;;;;;;;;;;;21.20;52.00;;;;;;4746609;55;20493;-30
2023/04/13 18:56:02;;;;;;;;;;;21.30;52.00;;;;;;4746471;58;20326;-28
2023/04/13 19:01:02;;;;;;;;;;;21.20;51.90;;;;;;4789117;55;20160;-27
2023/04/13 19:06:04;;;;;;;;;;;21.30;52.00;;;;;;4801155;55;20100;-26
2023/04/13 19:11:04;;;;;;;;;;;21.20;51.90;;;;;;4816467;55;20731;-28
2023/04/13 19:16:05;;;;;;;;;;;21.20;51.90;;;;;;4767731;55;20275;-29
2023/04/13 19:21:06;;;;;;;;;;;21.20;51.90;;;;;;4836328;55;20112;-31
2023/04/13 19:26:07;;;;;;;;;;;21.20;52.00;;;;;;4746583;58;20163;-27
2023/04/13 19:31:07;;;;;;;;;;;21.20;51.90;;;;;;4779900;55;20083;-29
2023/04/13 19:36:08;;;;;;;;;;;21.20;51.90;;;;;;4832800;55;20080;-27
2023/04/13 19:41:10;;;;;;;;;;;21.20;51.90;;;;;;4767061;55;20156;-29
2023/04/13 19:46:13;;;;;;;;;;;21.20;51.90;;;;;;4817732;55;20125;-31
2023/04/13 19:51:14;;;;;;;;;;;21.20;51.90;;;;;;4813857;55;20272;-30
2023/04/13 19:56:15;;;;;;;;;;;21.20;51.90;;;;;;4809529;55;20692;-28
2023/04/13 20:01:16;;;;;;;;;;;21.20;51.80;;;;;;4791603;55;20418;-30
2023/04/13 20:06:17;;;;;;;;;;;21.20;51.80;;;;;;4787532;55;20732;-30
2023/04/13 20:11:18;;;;;;;;;;;21.20;51.80;;;;;;4750502;55;20409;-29
2023/04/13 20:16:19;;;;;;;;;;;21.20;51.80;;;;;;4868836;55;20080;-27
2023/04/13 20:21:20;;;;;;;;;;;21.20;51.80;;;;;;4782566;55;20069;-29
2023/04/13 20:26:21;;;;;;;;;;;21.20;51.70;;;;;;4776258;55;20303;-22
2023/04/13 20:31:22;;;;;;;;;;;21.20;51.70;;;;;;4908080;55;20374;-29
2023/04/13 20:36:24;;;;;;;;;;;21.20;51.70;;;;;;4745286;58;20064;-29
2023/04/13 20:41:25;;;;;;;;;;;21.20;51.70;;;;;;4833740;55;20395;-28
2023/04/13 20:46:32;;;;;;;;;;;21.20;51.70;;;;;;4892074;55;20911;-29
2023/04/13 20:51:33;;;;;;;;;;;21.20;51.60;;;;;;4874175;55;20314;-27
2023/04/13 20:56:34;;;;;;;;;;;21.20;51.60;;;;;;4746794;58;20113;-26
2023/04/13 21:01:34;;;;;;;;;;;21.20;51.70;;;;;;4780941;55;20294;-28
2023/04/13 21:06:35;;;;;;;;;;;21.20;51.60;;;;;;4746484;58;20060;-27
2023/04/13 21:11:36;;;;;;;;;;;21.20;51.60;;;;;;4782950;55;20334;-29
2023/04/13 21:16:37;;;;;;;;;;;21.20;51.60;;;;;;4798082;55;20084;-30
2023/04/13 21:21:37;;;;;;;;;;;21.20;51.60;;;;;;4758867;55;20117;-30
2023/04/13 21:26:38;;;;;;;;;;;21.20;52.20;;;;;;4992220;55;20076;-27
2023/04/13 21:31:39;;;;;;;;;;;21.20;51.60;;;;;;4858748;55;20302;-31
2023/04/13 21:36:43;;;;;;;;;;;21.20;51.60;;;;;;4761085;55;20112;-28
2023/04/13 21:41:43;;;;;;;;;;;21.20;51.60;;;;;;4765013;55;20271;-31
2023/04/13 21:46:44;;;;;;;;;;;21.20;51.60;;;;;;4746231;55;20056;-29
2023/04/13 21:51:45;;;;;;;;;;;21.20;51.60;;;;;;4750550;55;20310;-28
2023/04/13 21:56:45;;;;;;;;;;;21.20;51.50;;;;;;4835609;55;20073;-29
2023/04/13 22:01:46;;;;;;;;;;;21.20;51.60;;;;;;4785288;55;20132;-31
2023/04/13 22:06:47;;;;;;;;;;;21.20;51.60;;;;;;4828144;55;20071;-30
2023/04/13 22:11:47;;;;;;;;;;;21.20;51.60;;;;;;4752265;55;20072;-29
2023/04/13 22:16:48;;;;;;;;;;;21.20;51.50;;;;;;4843647;55;20133;-26
2023/04/13 22:21:48;;;;;;;;;;;21.20;51.50;;;;;;4746666;58;20505;-30
2023/04/13 22:26:50;;;;;;;;;;;21.20;51.60;;;;;;4746806;55;20220;-29
2023/04/13 22:31:50;;;;;;;;;;;21.20;51.60;;;;;;4814532;55;20286;-33
2023/04/13 22:36:51;;;;;;;;;;;21.20;51.50;;;;;;4828980;55;20128;-29
2023/04/13 22:41:52;;;;;;;;;;;21.20;51.50;;;;;;4746205;58;20306;-31
2023/04/13 22:46:52;;;;;;;;;;;21.20;51.50;;;;;;4746422;58;20112;-30
2023/04/13 22:51:53;;;;;;;;;;;21.20;51.60;;;;;;4746696;58;20067;-31
2023/04/13 22:56:56;;;;;;;;;;;21.20;51.60;;;;;;4931182;55;20072;-24
2023/04/13 23:01:59;;;;;;;;;;;21.20;51.60;;;;;;4860919;55;20060;-30
2023/04/13 23:07:00;;;;;;;;;;;21.20;51.60;;;;;;4802598;55;20306;-26
2023/04/13 23:12:01;;;;;;;;;;;21.20;51.60;;;;;;4791765;55;20076;-28
2023/04/13 23:17:01;;;;;;;;;;;21.20;51.70;;;;;;4840702;55;20405;-29
2023/04/13 23:22:05;;;;;;;;;;;21.20;51.60;;;;;;4789568;55;20297;-31
2023/04/13 23:27:06;;;;;;;;;;;21.20;51.70;;;;;;4746332;58;20061;-27
2023/04/13 23:32:06;;;;;;;;;;;21.20;51.60;;;;;;4814267;55;20053;-30
2023/04/13 23:37:07;;;;;;;;;;;21.20;51.70;;;;;;4800821;54;20367;-29
2023/04/13 23:42:08;;;;;;;;;;;21.20;51.60;;;;;;4768626;55;20200;-28
2023/04/13 23:47:08;;;;;;;;;;;21.20;51.60;;;;;;4746825;58;20966;-29
2023/04/13 23:52:09;;;;;;;;;;;21.20;51.70;;;;;;4930412;55;20271;-31
2023/04/13 23:57:11;;;;;;;;;;;21.20;51.70;;;;;;4824438;55;20132;-32
